createdAt,value
2022-11-26T00:01:00.307Z,7.75
2022-11-26T00:04:06.829Z,8.02
2022-11-26T00:07:12.184Z,8.13
2022-11-26T00:10:23.695Z,6.85
2022-11-26T00:13:30.251Z,8.45
2022-11-26T00:16:35.545Z,8.10
2022-11-26T00:19:40.782Z,7.93
2022-11-26T00:22:47.662Z,7.97
2022-11-26T00:25:57.115Z,7.80
2022-11-26T00:29:03.118Z,6.88
2022-11-26T00:32:09.086Z,8.00
2022-11-26T00:35:14.483Z,7.22
2022-11-26T00:38:20.719Z,7.97
2022-11-26T00:41:30.543Z,7.00
2022-11-26T00:44:35.859Z,7.50
2022-11-26T00:47:41.318Z,6.90
2022-11-26T00:50:48.200Z,7.45
2022-11-26T00:53:54.109Z,7.32
2022-11-26T00:57:01.938Z,7.15
2022-11-26T01:00:16.728Z,6.95
2022-11-26T01:03:21.937Z,6.90
2022-11-26T01:06:31.446Z,7.00
2022-11-26T01:09:36.462Z,7.40
2022-11-26T01:12:44.431Z,7.22
2022-11-26T01:15:49.611Z,7.30
2022-11-26T01:18:55.789Z,7.60
2022-11-26T01:22:00.989Z,9.05
2022-11-26T01:25:06.314Z,7.65
2022-11-26T01:28:16.713Z,7.05
2022-11-26T01:31:22.900Z,7.35
2022-11-26T01:34:28.299Z,7.85
2022-11-26T01:37:33.556Z,7.47
2022-11-26T01:40:42.033Z,7.53
2022-11-26T01:43:51.050Z,7.57
2022-11-26T01:46:56.310Z,8.30
2022-11-26T01:50:16.548Z,7.03
2022-11-26T01:53:24.600Z,7.97
2022-11-26T01:56:34.049Z,7.78
2022-11-26T01:59:43.094Z,7.45
2022-11-26T02:02:48.799Z,7.40
2022-11-26T02:05:57.011Z,7.80
2022-11-26T02:09:02.470Z,7.78
2022-11-26T02:12:07.535Z,7.78
2022-11-26T02:15:15.979Z,7.65
2022-11-26T02:18:22.243Z,6.85
2022-11-26T02:21:29.469Z,8.15
2022-11-26T02:24:46.296Z,7.35
2022-11-26T02:28:04.534Z,7.25
2022-11-26T02:34:19.174Z,7.50
2022-11-26T02:37:26.131Z,6.82
2022-11-26T02:40:31.394Z,6.90
2022-11-26T02:43:37.631Z,7.05
2022-11-26T02:46:44.100Z,6.38
2022-11-26T02:49:52.667Z,6.75
2022-11-26T02:56:05.410Z,6.75
2022-11-26T02:59:10.888Z,6.22
2022-11-26T03:02:19.105Z,6.22
2022-11-26T03:08:32.282Z,5.97
2022-11-26T03:11:37.905Z,6.05
2022-11-26T03:14:42.978Z,6.15
2022-11-26T03:17:48.199Z,6.05
2022-11-26T03:20:53.696Z,5.85
2022-11-26T03:24:01.459Z,6.13
2022-11-26T03:27:06.949Z,5.80
2022-11-26T03:30:12.633Z,4.90
2022-11-26T03:33:17.854Z,5.22
2022-11-26T03:36:23.023Z,5.05
2022-11-26T03:39:30.892Z,4.30
2022-11-26T03:42:36.032Z,5.05
2022-11-26T03:45:41.213Z,4.88
2022-11-26T03:48:46.383Z,4.25
2022-11-26T03:51:51.437Z,4.15
2022-11-26T03:54:59.277Z,4.75
2022-11-26T03:58:04.523Z,4.05
2022-11-26T04:01:11.075Z,4.70
2022-11-26T04:04:19.374Z,4.25
2022-11-26T04:10:32.021Z,4.13
2022-11-26T04:13:37.171Z,4.18
2022-11-26T04:16:42.628Z,3.92
2022-11-26T04:19:47.945Z,3.85
2022-11-26T04:22:53.281Z,3.97
2022-11-26T04:26:00.860Z,4.43
2022-11-26T04:29:06.544Z,4.03
2022-11-26T04:32:11.760Z,4.28
2022-11-26T04:35:17.153Z,4.55
2022-11-26T04:38:25.697Z,4.47
2022-11-26T04:41:33.923Z,4.85
2022-11-26T04:44:39.125Z,3.88
2022-11-26T04:47:44.445Z,4.32
2022-11-26T04:50:49.631Z,4.28
2022-11-26T04:53:55.894Z,4.00
2022-11-26T04:57:04.097Z,3.67
2022-11-26T05:00:10.977Z,4.22
2022-11-26T05:03:16.281Z,3.75
2022-11-26T05:06:21.455Z,3.22
2022-11-26T05:09:26.648Z,3.05
2022-11-26T05:12:34.557Z,3.40
2022-11-26T05:15:39.801Z,2.80
2022-11-26T05:18:44.895Z,3.10
2022-11-26T05:21:50.145Z,2.88
2022-11-26T05:24:55.526Z,2.90
2022-11-26T05:28:03.103Z,2.40
2022-11-26T05:31:08.392Z,2.70
2022-11-26T05:34:13.553Z,2.63
2022-11-26T05:37:18.937Z,3.17
2022-11-26T05:40:23.969Z,3.13
2022-11-26T05:43:31.738Z,3.78
2022-11-26T05:46:37.099Z,2.95
2022-11-26T05:49:42.248Z,2.83
2022-11-26T05:52:47.418Z,2.97
2022-11-26T05:55:52.412Z,3.67
2022-11-26T05:59:00.199Z,3.03
2022-11-26T06:02:05.584Z,3.40
2022-11-26T06:05:11.104Z,3.50
2022-11-26T06:08:16.278Z,3.42
2022-11-26T06:11:21.493Z,3.67
2022-11-26T06:14:29.116Z,3.65
2022-11-26T06:17:34.529Z,3.72
2022-11-26T06:20:40.017Z,3.33
2022-11-26T06:23:52.875Z,3.85
2022-11-26T06:27:01.289Z,4.03
2022-11-26T06:30:10.195Z,4.72
2022-11-26T06:33:15.435Z,3.65
2022-11-26T06:36:20.491Z,4.03
2022-11-26T06:39:25.659Z,4.05
2022-11-26T06:42:30.887Z,4.32
2022-11-26T06:45:38.797Z,4.75
2022-11-26T06:48:43.806Z,4.13
2022-11-26T06:51:49.195Z,4.65
2022-11-26T06:54:54.826Z,4.82
2022-11-26T06:57:59.929Z,4.82
2022-11-26T07:01:13.422Z,4.85
2022-11-26T07:04:18.464Z,5.05
2022-11-26T07:07:23.863Z,6.50
2022-11-26T07:10:29.220Z,6.22
2022-11-26T07:13:34.538Z,4.97
2022-11-26T07:16:42.152Z,5.15
2022-11-26T07:19:47.565Z,5.50
2022-11-26T07:22:53.432Z,5.50
2022-11-26T07:26:01.454Z,5.18
2022-11-26T07:29:06.819Z,5.25
2022-11-26T07:32:14.585Z,5.82
2022-11-26T07:35:19.774Z,6.18
2022-11-26T07:38:24.916Z,5.40
2022-11-26T07:41:30.955Z,5.60
2022-11-26T07:44:36.804Z,5.82
2022-11-26T07:47:44.855Z,5.60
2022-11-26T07:50:50.127Z,5.75
2022-11-26T07:53:55.744Z,5.97
2022-11-26T07:57:06.701Z,5.25
2022-11-26T08:00:14.856Z,5.10
2022-11-26T08:03:22.673Z,5.47
2022-11-26T08:06:28.792Z,5.72
2022-11-26T08:09:34.325Z,5.40
2022-11-26T08:12:39.736Z,5.78
2022-11-26T08:15:45.048Z,6.00
2022-11-26T08:18:55.878Z,6.30
2022-11-26T08:22:01.540Z,7.10
2022-11-26T08:25:07.454Z,6.57
2022-11-26T08:28:15.326Z,6.38
2022-11-26T08:31:21.242Z,6.22
2022-11-26T08:34:30.696Z,6.20
2022-11-26T08:37:42.391Z,6.35
2022-11-26T08:40:49.684Z,7.15
2022-11-26T08:47:20.939Z,5.40
2022-11-26T08:50:44.369Z,5.93
2022-11-26T08:53:52.703Z,6.25
2022-11-26T08:56:59.250Z,6.43
2022-11-26T09:00:08.942Z,5.80
2022-11-26T09:03:14.833Z,7.20
2022-11-26T09:06:21.244Z,6.57
2022-11-26T09:09:29.458Z,6.38
2022-11-26T09:15:40.436Z,6.43
2022-11-26T09:18:45.928Z,6.60
2022-11-26T09:21:51.074Z,6.55
2022-11-26T09:24:58.971Z,5.80
2022-11-26T09:28:05.021Z,6.10
2022-11-26T09:31:10.654Z,6.07
2022-11-26T09:34:16.080Z,6.20
2022-11-26T09:37:21.296Z,6.55
2022-11-26T09:40:32.959Z,6.65
2022-11-26T09:43:44.175Z,6.57
2022-11-26T09:47:11.111Z,6.43
2022-11-26T09:50:23.973Z,5.68
2022-11-26T09:53:30.701Z,6.20
2022-11-26T09:56:40.063Z,5.78
2022-11-26T09:59:45.232Z,6.25
2022-11-26T10:02:50.573Z,6.43
2022-11-26T10:05:59.732Z,6.38
2022-11-26T10:09:22.798Z,6.68
2022-11-26T10:12:50.551Z,6.78
2022-11-26T10:16:04.734Z,5.88
2022-11-26T10:19:14.983Z,6.65
2022-11-26T10:22:24.383Z,6.13
2022-11-26T10:25:31.706Z,6.18
2022-11-26T10:28:42.014Z,6.50
2022-11-26T10:31:49.179Z,6.28
2022-11-26T10:34:55.473Z,8.32
2022-11-26T10:38:01.250Z,6.90
2022-11-26T10:41:06.392Z,6.55
2022-11-26T10:44:35.182Z,7.03
2022-11-26T10:47:43.377Z,7.43
2022-11-26T10:50:58.014Z,7.85
2022-11-26T10:54:04.314Z,7.00
2022-11-26T10:57:15.457Z,7.20
2022-11-26T11:00:34.874Z,7.13
2022-11-26T11:07:30.910Z,6.90
2022-11-26T11:10:36.236Z,7.05
2022-11-26T11:13:45.155Z,8.18
2022-11-26T11:16:50.329Z,7.07
2022-11-26T11:19:58.768Z,7.70
2022-11-26T11:23:08.769Z,7.28
2022-11-26T11:26:18.858Z,7.75
2022-11-26T11:29:35.703Z,8.18
2022-11-26T11:32:41.788Z,8.57
2022-11-26T11:35:59.776Z,8.10
2022-11-26T11:39:05.213Z,7.47
2022-11-26T11:42:18.091Z,7.78
2022-11-26T11:45:25.548Z,7.75
2022-11-26T11:48:35.855Z,7.75
2022-11-26T11:51:46.682Z,8.55
2022-11-26T11:54:57.112Z,8.02
2022-11-26T11:58:10.223Z,9.82
2022-11-26T12:01:20.371Z,9.80
2022-11-26T12:04:36.958Z,9.98
2022-11-26T12:07:46.432Z,8.93
2022-11-26T12:10:56.431Z,8.50
2022-11-26T12:14:03.973Z,9.07
2022-11-26T12:17:11.263Z,8.77
2022-11-26T12:20:20.141Z,8.18
2022-11-26T12:23:31.410Z,8.40
2022-11-26T12:26:37.845Z,8.63
2022-11-26T12:29:44.989Z,9.70
2022-11-26T12:32:52.598Z,8.18
2022-11-26T12:35:59.395Z,8.35
2022-11-26T12:39:15.248Z,8.68
2022-11-26T12:42:22.191Z,8.88
2022-11-26T12:45:37.007Z,8.15
2022-11-26T12:48:46.480Z,7.90
2022-11-26T12:52:02.425Z,8.82
2022-11-26T12:55:14.123Z,9.05
2022-11-26T12:58:21.868Z,7.75
2022-11-26T13:01:27.321Z,7.20
2022-11-26T13:04:39.940Z,8.43
2022-11-26T13:07:51.451Z,8.10
2022-11-26T13:11:09.943Z,8.43
2022-11-26T13:14:20.760Z,8.70
2022-11-26T13:17:29.461Z,8.48
2022-11-26T13:20:41.568Z,9.02
2022-11-26T13:23:53.972Z,8.75
2022-11-26T13:27:12.389Z,9.38
2022-11-26T13:33:37.223Z,9.93
2022-11-26T13:36:57.325Z,8.80
2022-11-26T13:40:19.984Z,9.23
2022-11-26T13:43:42.911Z,8.88
2022-11-26T13:46:52.959Z,9.48
2022-11-26T13:50:01.390Z,9.18
2022-11-26T13:53:09.423Z,8.98
2022-11-26T13:56:16.466Z,9.27
2022-11-26T13:59:35.182Z,9.90
2022-11-26T14:03:05.664Z,8.95
2022-11-26T14:13:33.183Z,8.77
2022-11-26T14:17:06.822Z,9.90
2022-11-26T14:20:13.510Z,9.73
2022-11-26T14:23:33.275Z,9.23
2022-11-26T14:26:41.303Z,9.90
2022-11-26T14:29:46.744Z,9.80
2022-11-26T14:32:57.479Z,9.45
2022-11-26T14:36:02.730Z,9.43
2022-11-26T14:39:09.736Z,10.25
2022-11-26T14:42:20.688Z,8.80
2022-11-26T14:45:26.621Z,9.32
2022-11-26T14:48:32.569Z,8.60
2022-11-26T14:51:38.046Z,9.23
2022-11-26T14:54:43.399Z,9.13
2022-11-26T14:57:52.673Z,9.20
2022-11-26T15:01:08.050Z,11.02
2022-11-26T15:04:24.343Z,8.63
2022-11-26T15:07:30.712Z,9.27
2022-11-26T15:10:36.749Z,9.48
2022-11-26T15:13:46.122Z,9.82
2022-11-26T15:16:55.761Z,9.25
2022-11-26T15:20:03.101Z,8.82
2022-11-26T15:23:15.524Z,10.25
2022-11-26T15:26:24.189Z,8.57
2022-11-26T15:29:36.907Z,8.48
2022-11-26T15:32:42.074Z,9.48
2022-11-26T15:35:47.140Z,9.73
2022-11-26T15:39:03.298Z,8.75
2022-11-26T15:42:10.583Z,9.38
2022-11-26T15:45:20.246Z,8.93
2022-11-26T15:48:50.349Z,8.70
2022-11-26T15:51:56.326Z,8.32
2022-11-26T15:55:18.539Z,9.38
2022-11-26T15:58:25.222Z,9.98
2022-11-26T16:01:34.807Z,9.13
2022-11-26T16:04:42.018Z,8.75
2022-11-26T16:07:59.282Z,9.20
2022-11-26T16:11:09.692Z,9.32
2022-11-26T16:14:31.893Z,9.85
2022-11-26T16:17:39.767Z,9.82
2022-11-26T16:20:45.457Z,8.93
2022-11-26T16:23:54.884Z,10.20
2022-11-26T16:27:01.128Z,10.55
2022-11-26T16:30:09.893Z,10.40
2022-11-26T16:33:17.823Z,10.07
2022-11-26T16:36:25.040Z,9.55
2022-11-26T16:39:31.458Z,11.02
2022-11-26T16:42:38.013Z,10.07
2022-11-26T16:45:43.326Z,11.70
2022-11-26T16:48:51.236Z,10.20
2022-11-26T16:51:57.135Z,9.57
2022-11-26T16:55:02.582Z,11.43
2022-11-26T16:58:08.581Z,10.02
2022-11-26T17:01:13.749Z,11.45
2022-11-26T17:04:23.067Z,11.27
2022-11-26T17:07:29.366Z,11.20
2022-11-26T17:10:34.678Z,11.43
2022-11-26T17:13:39.703Z,11.35
2022-11-26T17:16:45.112Z,10.48
2022-11-26T17:19:53.361Z,11.98
2022-11-26T17:22:58.420Z,12.15
2022-11-26T17:26:04.242Z,11.38
2022-11-26T17:29:09.391Z,12.05
2022-11-26T17:32:14.838Z,10.77
2022-11-26T17:35:22.848Z,11.20
2022-11-26T17:38:28.101Z,11.73
2022-11-26T17:41:33.571Z,11.40
2022-11-26T17:44:38.551Z,12.38
2022-11-26T17:47:44.046Z,13.48
2022-11-26T17:50:52.042Z,12.55
2022-11-26T17:53:57.700Z,12.18
2022-11-26T17:57:02.803Z,12.48
2022-11-26T18:00:09.141Z,10.82
2022-11-26T18:03:14.523Z,11.77
2022-11-26T18:06:24.829Z,12.07
2022-11-26T18:09:30.186Z,10.93
2022-11-26T18:12:35.290Z,12.18
2022-11-26T18:15:40.941Z,11.85
2022-11-26T18:18:45.995Z,11.70
2022-11-26T18:21:54.612Z,12.77
2022-11-26T18:24:59.870Z,12.02
2022-11-26T18:28:05.042Z,12.15
2022-11-26T18:31:10.567Z,12.50
2022-11-26T18:34:15.877Z,12.48
2022-11-26T18:37:23.789Z,13.90
2022-11-26T18:40:29.330Z,13.77
2022-11-26T18:43:34.968Z,13.40
2022-11-26T18:46:40.448Z,14.70
2022-11-26T18:49:47.665Z,13.20
2022-11-26T18:52:58.856Z,13.55
2022-11-26T18:56:04.545Z,12.93
2022-11-26T18:59:10.063Z,13.80
2022-11-26T19:02:15.426Z,11.55
2022-11-26T19:05:20.959Z,12.30
2022-11-26T19:08:28.924Z,12.07
2022-11-26T19:11:34.352Z,12.65
2022-11-26T19:14:39.808Z,12.70
2022-11-26T19:17:45.231Z,12.45
2022-11-26T19:20:51.633Z,12.85
2022-11-26T19:24:01.541Z,11.77
2022-11-26T19:27:06.684Z,12.43
2022-11-26T19:30:12.482Z,12.27
2022-11-26T19:33:17.541Z,11.88
2022-11-26T19:36:22.568Z,11.82
2022-11-26T19:39:30.401Z,12.13
2022-11-26T19:42:35.644Z,11.65
2022-11-26T19:45:41.047Z,11.20
2022-11-26T19:48:47.742Z,11.70
2022-11-26T19:51:53.023Z,11.20
2022-11-26T19:55:01.354Z,11.80
2022-11-26T19:58:08.410Z,11.80
2022-11-26T20:01:15.585Z,11.00
2022-11-26T20:04:21.170Z,11.13
2022-11-26T20:07:47.300Z,10.77
2022-11-26T20:10:55.208Z,12.57
2022-11-26T20:14:01.202Z,10.65
2022-11-26T20:17:06.482Z,11.02
2022-11-26T20:20:12.277Z,10.80
2022-11-26T20:23:17.869Z,10.93
2022-11-26T20:26:28.266Z,11.98
2022-11-26T20:29:33.287Z,10.88
2022-11-26T20:32:39.220Z,10.57
2022-11-26T20:35:44.897Z,11.50
2022-11-26T20:38:50.086Z,10.93
2022-11-26T20:41:58.067Z,11.00
2022-11-26T20:45:03.553Z,10.35
2022-11-26T20:48:09.068Z,11.65
2022-11-26T20:51:14.956Z,10.50
2022-11-26T20:54:20.188Z,11.85
2022-11-26T20:57:27.982Z,11.45
2022-11-26T21:00:33.051Z,11.52
2022-11-26T21:03:38.099Z,11.63
2022-11-26T21:06:44.730Z,11.45
2022-11-26T21:09:49.935Z,11.57
2022-11-26T21:12:57.792Z,12.13
2022-11-26T21:16:04.842Z,10.90
2022-11-26T21:19:09.898Z,11.90
2022-11-26T21:22:15.268Z,11.82
2022-11-26T21:25:20.547Z,10.75
2022-11-26T21:28:28.303Z,11.55
2022-11-26T21:31:34.311Z,10.40
2022-11-26T21:34:39.304Z,11.15
2022-11-26T21:37:44.673Z,11.15
2022-11-26T21:40:49.840Z,11.85
2022-11-26T21:43:59.862Z,10.35
2022-11-26T21:47:05.673Z,11.20
2022-11-26T21:50:12.077Z,11.25
2022-11-26T21:53:17.287Z,10.38
2022-11-26T21:56:23.436Z,10.88
2022-11-26T21:59:31.251Z,10.77
2022-11-26T22:02:36.636Z,10.57
2022-11-26T22:05:42.024Z,10.88
2022-11-26T22:08:47.705Z,10.60
2022-11-26T22:11:52.882Z,10.90
2022-11-26T22:15:00.756Z,10.65
2022-11-26T22:18:06.033Z,10.73
2022-11-26T22:21:12.906Z,10.45
2022-11-26T22:24:18.679Z,10.50
2022-11-26T22:27:24.116Z,10.70
2022-11-26T22:30:32.230Z,10.05
2022-11-26T22:33:37.408Z,9.77
2022-11-26T22:36:43.583Z,10.20
2022-11-26T22:39:53.699Z,9.85
2022-11-26T22:42:59.213Z,10.13
2022-11-26T22:46:09.153Z,10.20
2022-11-26T22:49:15.891Z,10.20
2022-11-26T22:52:21.563Z,9.50
2022-11-26T22:55:26.779Z,9.20
2022-11-26T22:58:32.735Z,9.50
2022-11-26T23:01:40.432Z,8.57
2022-11-26T23:04:45.746Z,9.68
2022-11-26T23:07:50.973Z,9.75
2022-11-26T23:10:56.268Z,9.40
2022-11-26T23:14:02.289Z,9.48
2022-11-26T23:17:10.001Z,9.38
2022-11-26T23:20:15.777Z,11.00
2022-11-26T23:23:21.203Z,8.60
2022-11-26T23:26:27.868Z,9.50
2022-11-26T23:29:33.249Z,8.57
2022-11-26T23:32:41.086Z,9.02
2022-11-26T23:35:46.434Z,9.88
2022-11-26T23:38:51.725Z,9.10
2022-11-26T23:41:56.918Z,9.38
2022-11-26T23:45:01.940Z,9.10
2022-11-26T23:48:11.321Z,9.35
2022-11-26T23:51:17.216Z,8.20
2022-11-26T23:54:22.685Z,8.65
2022-11-26T23:57:27.717Z,9.65
